sensor_id;sensor_type;location;lat;lon;timestamp;P1;durP1;ratioP1;P2;durP2;ratioP2
77598;SDS011;66758;52.078;5.070;2023-05-14T00:02:04;24.40;;;15.23;;
77598;SDS011;66758;52.078;5.070;2023-05-14T00:04:29;24.73;;;14.25;;
77598;SDS011;66758;52.078;5.070;2023-05-14T00:06:55;23.63;;;14.10;;
77598;SDS011;66758;52.078;5.070;2023-05-14T00:09:20;27.63;;;14.03;;
77598;SDS011;66758;52.078;5.070;2023-05-14T00:11:45;24.87;;;16.07;;
77598;SDS011;66758;52.078;5.070;2023-05-14T00:14:10;25.03;;;14.50;;
77598;SDS011;66758;52.078;5.070;2023-05-14T00:16:36;22.73;;;15.27;;
77598;SDS011;66758;52.078;5.070;2023-05-14T00:19:02;23.90;;;15.57;;
77598;SDS011;66758;52.078;5.070;2023-05-14T00:21:27;21.50;;;14.55;;
77598;SDS011;66758;52.078;5.070;2023-05-14T00:23:53;23.50;;;14.43;;
77598;SDS011;66758;52.078;5.070;2023-05-14T00:26:18;21.70;;;14.43;;
77598;SDS011;66758;52.078;5.070;2023-05-14T00:28:44;24.42;;;14.45;;
77598;SDS011;66758;52.078;5.070;2023-05-14T00:31:09;23.97;;;13.87;;
77598;SDS011;66758;52.078;5.070;2023-05-14T00:33:36;23.67;;;13.45;;
77598;SDS011;66758;52.078;5.070;2023-05-14T00:36:01;24.87;;;15.23;;
77598;SDS011;66758;52.078;5.070;2023-05-14T00:38:27;24.30;;;14.52;;
77598;SDS011;66758;52.078;5.070;2023-05-14T00:40:52;23.23;;;13.57;;
77598;SDS011;66758;52.078;5.070;2023-05-14T00:43:18;23.93;;;14.63;;
77598;SDS011;66758;52.078;5.070;2023-05-14T00:45:43;27.00;;;15.13;;
77598;SDS011;66758;52.078;5.070;2023-05-14T00:48:09;23.50;;;15.90;;
77598;SDS011;66758;52.078;5.070;2023-05-14T00:50:34;24.93;;;14.63;;
77598;SDS011;66758;52.078;5.070;2023-05-14T00:52:59;28.00;;;14.83;;
77598;SDS011;66758;52.078;5.070;2023-05-14T00:55:25;24.27;;;14.63;;
77598;SDS011;66758;52.078;5.070;2023-05-14T00:57:50;22.30;;;13.80;;
77598;SDS011;66758;52.078;5.070;2023-05-14T01:00:17;26.23;;;15.50;;
77598;SDS011;66758;52.078;5.070;2023-05-14T01:02:42;23.25;;;14.70;;
77598;SDS011;66758;52.078;5.070;2023-05-14T01:05:07;24.93;;;15.00;;
77598;SDS011;66758;52.078;5.070;2023-05-14T01:10:16;24.15;;;14.88;;
77598;SDS011;66758;52.078;5.070;2023-05-14T01:12:54;24.50;;;15.13;;
77598;SDS011;66758;52.078;5.070;2023-05-14T01:15:24;24.65;;;14.07;;
77598;SDS011;66758;52.078;5.070;2023-05-14T01:17:55;26.58;;;14.48;;
77598;SDS011;66758;52.078;5.070;2023-05-14T01:20:21;23.52;;;14.27;;
77598;SDS011;66758;52.078;5.070;2023-05-14T01:22:47;25.73;;;15.00;;
77598;SDS011;66758;52.078;5.070;2023-05-14T01:25:12;24.47;;;14.70;;
77598;SDS011;66758;52.078;5.070;2023-05-14T01:28:00;24.90;;;14.80;;
77598;SDS011;66758;52.078;5.070;2023-05-14T01:32:55;22.67;;;13.90;;
77598;SDS011;66758;52.078;5.070;2023-05-14T01:35:22;26.90;;;15.00;;
77598;SDS011;66758;52.078;5.070;2023-05-14T01:37:49;24.00;;;14.63;;
77598;SDS011;66758;52.078;5.070;2023-05-14T01:40:14;22.05;;;13.20;;
77598;SDS011;66758;52.078;5.070;2023-05-14T01:42:40;23.17;;;14.23;;
77598;SDS011;66758;52.078;5.070;2023-05-14T01:45:05;25.80;;;14.60;;
77598;SDS011;66758;52.078;5.070;2023-05-14T01:47:30;26.07;;;16.00;;
77598;SDS011;66758;52.078;5.070;2023-05-14T01:49:56;26.20;;;15.23;;
77598;SDS011;66758;52.078;5.070;2023-05-14T01:52:22;27.58;;;13.88;;
77598;SDS011;66758;52.078;5.070;2023-05-14T01:54:47;23.53;;;14.57;;
77598;SDS011;66758;52.078;5.070;2023-05-14T01:57:12;23.43;;;13.83;;
77598;SDS011;66758;52.078;5.070;2023-05-14T01:59:38;22.00;;;13.43;;
77598;SDS011;66758;52.078;5.070;2023-05-14T02:02:03;21.50;;;13.70;;
77598;SDS011;66758;52.078;5.070;2023-05-14T02:04:28;24.60;;;14.03;;
77598;SDS011;66758;52.078;5.070;2023-05-14T02:06:53;23.77;;;13.30;;
77598;SDS011;66758;52.078;5.070;2023-05-14T02:09:19;22.13;;;14.47;;
77598;SDS011;66758;52.078;5.070;2023-05-14T02:11:44;24.83;;;13.37;;
77598;SDS011;66758;52.078;5.070;2023-05-14T02:14:10;20.13;;;12.85;;
77598;SDS011;66758;52.078;5.070;2023-05-14T02:16:35;21.70;;;13.83;;
77598;SDS011;66758;52.078;5.070;2023-05-14T02:19:00;20.53;;;12.77;;
77598;SDS011;66758;52.078;5.070;2023-05-14T02:21:26;29.00;;;14.57;;
77598;SDS011;66758;52.078;5.070;2023-05-14T02:23:51;23.23;;;14.03;;
77598;SDS011;66758;52.078;5.070;2023-05-14T02:26:16;24.17;;;14.03;;
77598;SDS011;66758;52.078;5.070;2023-05-14T02:28:42;24.47;;;13.77;;
77598;SDS011;66758;52.078;5.070;2023-05-14T02:31:07;23.17;;;12.82;;
77598;SDS011;66758;52.078;5.070;2023-05-14T02:33:32;24.40;;;14.13;;
77598;SDS011;66758;52.078;5.070;2023-05-14T02:35:57;23.57;;;13.83;;
77598;SDS011;66758;52.078;5.070;2023-05-14T02:38:23;28.17;;;13.83;;
77598;SDS011;66758;52.078;5.070;2023-05-14T02:40:48;25.40;;;13.93;;
77598;SDS011;66758;52.078;5.070;2023-05-14T02:43:13;23.73;;;13.93;;
77598;SDS011;66758;52.078;5.070;2023-05-14T02:45:39;20.43;;;12.70;;
77598;SDS011;66758;52.078;5.070;2023-05-14T02:48:04;27.07;;;13.67;;
77598;SDS011;66758;52.078;5.070;2023-05-14T02:50:29;24.52;;;13.32;;
77598;SDS011;66758;52.078;5.070;2023-05-14T02:52:55;21.73;;;13.53;;
77598;SDS011;66758;52.078;5.070;2023-05-14T02:55:20;25.03;;;14.07;;
77598;SDS011;66758;52.078;5.070;2023-05-14T02:57:45;27.53;;;14.87;;
77598;SDS011;66758;52.078;5.070;2023-05-14T03:00:11;24.53;;;14.10;;
77598;SDS011;66758;52.078;5.070;2023-05-14T03:02:36;26.60;;;15.23;;
77598;SDS011;66758;52.078;5.070;2023-05-14T03:05:02;25.00;;;14.37;;
77598;SDS011;66758;52.078;5.070;2023-05-14T03:07:27;23.70;;;13.90;;
77598;SDS011;66758;52.078;5.070;2023-05-14T03:09:53;25.13;;;13.93;;
77598;SDS011;66758;52.078;5.070;2023-05-14T03:12:18;24.87;;;14.17;;
77598;SDS011;66758;52.078;5.070;2023-05-14T03:14:43;27.80;;;14.47;;
77598;SDS011;66758;52.078;5.070;2023-05-14T03:17:08;23.40;;;14.77;;
77598;SDS011;66758;52.078;5.070;2023-05-14T03:19:34;29.37;;;15.47;;
77598;SDS011;66758;52.078;5.070;2023-05-14T03:21:59;24.93;;;15.40;;
77598;SDS011;66758;52.078;5.070;2023-05-14T03:24:24;26.27;;;15.10;;
77598;SDS011;66758;52.078;5.070;2023-05-14T03:26:50;26.80;;;15.10;;
77598;SDS011;66758;52.078;5.070;2023-05-14T03:29:15;28.20;;;15.53;;
77598;SDS011;66758;52.078;5.070;2023-05-14T03:31:42;26.57;;;15.87;;
77598;SDS011;66758;52.078;5.070;2023-05-14T03:34:07;29.80;;;15.18;;
77598;SDS011;66758;52.078;5.070;2023-05-14T03:36:33;29.77;;;14.60;;
77598;SDS011;66758;52.078;5.070;2023-05-14T03:39:00;27.45;;;15.60;;
77598;SDS011;66758;52.078;5.070;2023-05-14T03:41:25;26.27;;;14.57;;
77598;SDS011;66758;52.078;5.070;2023-05-14T03:43:50;31.23;;;16.30;;
77598;SDS011;66758;52.078;5.070;2023-05-14T03:46:16;26.57;;;15.93;;
77598;SDS011;66758;52.078;5.070;2023-05-14T03:48:41;26.67;;;15.47;;
77598;SDS011;66758;52.078;5.070;2023-05-14T03:51:06;29.40;;;15.40;;
77598;SDS011;66758;52.078;5.070;2023-05-14T03:53:32;28.77;;;14.93;;
77598;SDS011;66758;52.078;5.070;2023-05-14T03:55:57;24.20;;;14.90;;
77598;SDS011;66758;52.078;5.070;2023-05-14T03:58:22;25.40;;;14.57;;
77598;SDS011;66758;52.078;5.070;2023-05-14T04:00:48;26.03;;;13.93;;
77598;SDS011;66758;52.078;5.070;2023-05-14T04:03:13;27.03;;;15.13;;
77598;SDS011;66758;52.078;5.070;2023-05-14T04:05:38;24.90;;;14.98;;
77598;SDS011;66758;52.078;5.070;2023-05-14T04:08:04;25.00;;;14.43;;
77598;SDS011;66758;52.078;5.070;2023-05-14T04:10:30;26.57;;;14.87;;
77598;SDS011;66758;52.078;5.070;2023-05-14T04:12:56;27.58;;;15.48;;
77598;SDS011;66758;52.078;5.070;2023-05-14T04:15:21;26.43;;;14.03;;
77598;SDS011;66758;52.078;5.070;2023-05-14T04:17:46;24.57;;;14.07;;
77598;SDS011;66758;52.078;5.070;2023-05-14T04:20:12;26.23;;;14.77;;
77598;SDS011;66758;52.078;5.070;2023-05-14T04:22:37;25.93;;;15.47;;
77598;SDS011;66758;52.078;5.070;2023-05-14T04:25:02;28.83;;;14.73;;
77598;SDS011;66758;52.078;5.070;2023-05-14T04:27:27;29.13;;;14.23;;
77598;SDS011;66758;52.078;5.070;2023-05-14T04:29:53;24.10;;;14.97;;
77598;SDS011;66758;52.078;5.070;2023-05-14T04:32:18;28.00;;;14.47;;
77598;SDS011;66758;52.078;5.070;2023-05-14T04:34:44;29.52;;;15.35;;
77598;SDS011;66758;52.078;5.070;2023-05-14T04:37:10;27.63;;;15.60;;
77598;SDS011;66758;52.078;5.070;2023-05-14T04:39:36;29.30;;;16.07;;
77598;SDS011;66758;52.078;5.070;2023-05-14T04:42:01;28.07;;;14.40;;
77598;SDS011;66758;52.078;5.070;2023-05-14T04:44:27;24.73;;;14.73;;
77598;SDS011;66758;52.078;5.070;2023-05-14T04:46:53;28.77;;;15.50;;
77598;SDS011;66758;52.078;5.070;2023-05-14T04:49:19;26.27;;;15.37;;
77598;SDS011;66758;52.078;5.070;2023-05-14T04:51:45;25.73;;;15.43;;
77598;SDS011;66758;52.078;5.070;2023-05-14T04:54:10;29.40;;;14.30;;
77598;SDS011;66758;52.078;5.070;2023-05-14T04:56:35;23.23;;;13.80;;
77598;SDS011;66758;52.078;5.070;2023-05-14T04:59:00;25.77;;;15.17;;
77598;SDS011;66758;52.078;5.070;2023-05-14T05:01:26;24.33;;;15.73;;
77598;SDS011;66758;52.078;5.070;2023-05-14T05:03:51;27.47;;;16.10;;
77598;SDS011;66758;52.078;5.070;2023-05-14T05:06:16;29.30;;;15.57;;
77598;SDS011;66758;52.078;5.070;2023-05-14T05:08:42;27.20;;;15.07;;
77598;SDS011;66758;52.078;5.070;2023-05-14T05:11:07;30.90;;;15.90;;
77598;SDS011;66758;52.078;5.070;2023-05-14T05:13:32;25.63;;;14.67;;
77598;SDS011;66758;52.078;5.070;2023-05-14T05:15:58;25.43;;;14.57;;
77598;SDS011;66758;52.078;5.070;2023-05-14T05:18:23;24.38;;;13.73;;
77598;SDS011;66758;52.078;5.070;2023-05-14T05:20:48;28.73;;;14.90;;
77598;SDS011;66758;52.078;5.070;2023-05-14T05:23:14;22.67;;;14.17;;
77598;SDS011;66758;52.078;5.070;2023-05-14T05:25:39;22.33;;;13.27;;
77598;SDS011;66758;52.078;5.070;2023-05-14T05:28:05;23.63;;;14.73;;
77598;SDS011;66758;52.078;5.070;2023-05-14T05:30:30;23.77;;;14.50;;
77598;SDS011;66758;52.078;5.070;2023-05-14T05:32:55;20.23;;;13.03;;
77598;SDS011;66758;52.078;5.070;2023-05-14T05:35:21;25.02;;;13.95;;
77598;SDS011;66758;52.078;5.070;2023-05-14T05:37:47;25.40;;;15.73;;
77598;SDS011;66758;52.078;5.070;2023-05-14T05:40:12;21.07;;;13.90;;
77598;SDS011;66758;52.078;5.070;2023-05-14T05:42:38;24.25;;;14.80;;
77598;SDS011;66758;52.078;5.070;2023-05-14T05:45:04;22.87;;;14.83;;
77598;SDS011;66758;52.078;5.070;2023-05-14T05:47:29;24.63;;;13.73;;
77598;SDS011;66758;52.078;5.070;2023-05-14T05:49:55;21.47;;;12.20;;
77598;SDS011;66758;52.078;5.070;2023-05-14T05:52:20;18.17;;;12.57;;
77598;SDS011;66758;52.078;5.070;2023-05-14T05:54:45;21.63;;;13.87;;
77598;SDS011;66758;52.078;5.070;2023-05-14T05:57:10;22.67;;;13.37;;
77598;SDS011;66758;52.078;5.070;2023-05-14T05:59:36;25.23;;;13.20;;
77598;SDS011;66758;52.078;5.070;2023-05-14T06:02:07;25.23;;;14.33;;
77598;SDS011;66758;52.078;5.070;2023-05-14T06:04:32;22.63;;;12.67;;
77598;SDS011;66758;52.078;5.070;2023-05-14T06:06:58;23.20;;;13.35;;
77598;SDS011;66758;52.078;5.070;2023-05-14T06:09:23;21.43;;;12.23;;
77598;SDS011;66758;52.078;5.070;2023-05-14T06:11:48;24.40;;;13.83;;
77598;SDS011;66758;52.078;5.070;2023-05-14T06:14:14;22.27;;;13.13;;
77598;SDS011;66758;52.078;5.070;2023-05-14T06:16:39;19.97;;;13.30;;
77598;SDS011;66758;52.078;5.070;2023-05-14T06:19:04;20.77;;;14.07;;
77598;SDS011;66758;52.078;5.070;2023-05-14T06:21:30;26.40;;;14.73;;
77598;SDS011;66758;52.078;5.070;2023-05-14T06:23:55;23.90;;;13.93;;
77598;SDS011;66758;52.078;5.070;2023-05-14T06:26:21;22.77;;;14.90;;
77598;SDS011;66758;52.078;5.070;2023-05-14T06:28:46;21.43;;;14.00;;
77598;SDS011;66758;52.078;5.070;2023-05-14T06:31:11;21.47;;;13.53;;
77598;SDS011;66758;52.078;5.070;2023-05-14T06:33:37;24.17;;;15.50;;
77598;SDS011;66758;52.078;5.070;2023-05-14T06:36:03;24.67;;;14.93;;
77598;SDS011;66758;52.078;5.070;2023-05-14T06:38:29;20.27;;;13.90;;
77598;SDS011;66758;52.078;5.070;2023-05-14T06:40:54;23.63;;;14.97;;
77598;SDS011;66758;52.078;5.070;2023-05-14T06:43:19;20.83;;;14.18;;
77598;SDS011;66758;52.078;5.070;2023-05-14T06:45:48;22.53;;;15.20;;
77598;SDS011;66758;52.078;5.070;2023-05-14T06:48:13;19.13;;;12.90;;
77598;SDS011;66758;52.078;5.070;2023-05-14T06:50:39;25.10;;;14.00;;
77598;SDS011;66758;52.078;5.070;2023-05-14T06:53:04;19.27;;;13.10;;
77598;SDS011;66758;52.078;5.070;2023-05-14T06:55:29;20.73;;;13.10;;
77598;SDS011;66758;52.078;5.070;2023-05-14T06:57:55;20.20;;;12.80;;
77598;SDS011;66758;52.078;5.070;2023-05-14T07:00:20;20.73;;;13.67;;
77598;SDS011;66758;52.078;5.070;2023-05-14T07:02:45;16.98;;;12.48;;
77598;SDS011;66758;52.078;5.070;2023-05-14T07:05:11;18.87;;;12.03;;
77598;SDS011;66758;52.078;5.070;2023-05-14T07:07:36;20.73;;;12.83;;
77598;SDS011;66758;52.078;5.070;2023-05-14T07:10:01;16.83;;;11.73;;
77598;SDS011;66758;52.078;5.070;2023-05-14T07:12:27;18.30;;;11.53;;
77598;SDS011;66758;52.078;5.070;2023-05-14T07:14:52;16.50;;;11.80;;
77598;SDS011;66758;52.078;5.070;2023-05-14T07:17:17;19.13;;;12.57;;
77598;SDS011;66758;52.078;5.070;2023-05-14T07:19:42;14.27;;;11.10;;
77598;SDS011;66758;52.078;5.070;2023-05-14T07:22:08;15.80;;;10.53;;
77598;SDS011;66758;52.078;5.070;2023-05-14T07:24:33;13.97;;;10.47;;
77598;SDS011;66758;52.078;5.070;2023-05-14T07:26:58;16.13;;;10.10;;
77598;SDS011;66758;52.078;5.070;2023-05-14T07:29:24;15.75;;;11.35;;
77598;SDS011;66758;52.078;5.070;2023-05-14T07:31:50;16.93;;;10.27;;
77598;SDS011;66758;52.078;5.070;2023-05-14T07:34:15;12.67;;;10.33;;
77598;SDS011;66758;52.078;5.070;2023-05-14T07:36:41;13.00;;;10.37;;
77598;SDS011;66758;52.078;5.070;2023-05-14T07:39:06;16.75;;;10.45;;
77598;SDS011;66758;52.078;5.070;2023-05-14T07:41:31;15.77;;;10.97;;
77598;SDS011;66758;52.078;5.070;2023-05-14T07:43:57;16.13;;;10.43;;
77598;SDS011;66758;52.078;5.070;2023-05-14T07:46:22;17.37;;;11.20;;
77598;SDS011;66758;52.078;5.070;2023-05-14T07:48:47;15.10;;;10.97;;
77598;SDS011;66758;52.078;5.070;2023-05-14T07:51:13;14.17;;;10.30;;
77598;SDS011;66758;52.078;5.070;2023-05-14T07:53:38;12.43;;;9.20;;
77598;SDS011;66758;52.078;5.070;2023-05-14T07:56:03;15.60;;;9.50;;
77598;SDS011;66758;52.078;5.070;2023-05-14T07:58:29;13.50;;;9.73;;
77598;SDS011;66758;52.078;5.070;2023-05-14T08:00:54;14.27;;;8.87;;
77598;SDS011;66758;52.078;5.070;2023-05-14T08:03:20;15.25;;;9.88;;
77598;SDS011;66758;52.078;5.070;2023-05-14T08:05:45;11.23;;;8.57;;
77598;SDS011;66758;52.078;5.070;2023-05-14T08:08:11;12.87;;;8.63;;
77598;SDS011;66758;52.078;5.070;2023-05-14T08:10:36;11.27;;;8.30;;
77598;SDS011;66758;52.078;5.070;2023-05-14T08:13:01;14.43;;;8.33;;
77598;SDS011;66758;52.078;5.070;2023-05-14T08:15:27;14.50;;;7.57;;
77598;SDS011;66758;52.078;5.070;2023-05-14T08:17:52;13.43;;;7.23;;
77598;SDS011;66758;52.078;5.070;2023-05-14T08:20:17;13.93;;;6.90;;
77598;SDS011;66758;52.078;5.070;2023-05-14T08:22:43;12.73;;;7.47;;
77598;SDS011;66758;52.078;5.070;2023-05-14T08:25:08;11.80;;;8.05;;
77598;SDS011;66758;52.078;5.070;2023-05-14T08:27:34;11.33;;;7.17;;
77598;SDS011;66758;52.078;5.070;2023-05-14T08:29:59;12.07;;;8.50;;
77598;SDS011;66758;52.078;5.070;2023-05-14T08:32:25;17.50;;;8.65;;
77598;SDS011;66758;52.078;5.070;2023-05-14T08:34:50;12.87;;;9.20;;
77598;SDS011;66758;52.078;5.070;2023-05-14T08:37:15;13.47;;;9.03;;
77598;SDS011;66758;52.078;5.070;2023-05-14T08:39:40;13.83;;;9.07;;
77598;SDS011;66758;52.078;5.070;2023-05-14T08:42:06;12.73;;;9.47;;
77598;SDS011;66758;52.078;5.070;2023-05-14T08:44:35;13.00;;;9.45;;
77598;SDS011;66758;52.078;5.070;2023-05-14T08:47:02;14.90;;;8.77;;
77598;SDS011;66758;52.078;5.070;2023-05-14T08:49:51;13.77;;;8.23;;
77598;SDS011;66758;52.078;5.070;2023-05-14T08:52:14;12.38;;;8.38;;
77598;SDS011;66758;52.078;5.070;2023-05-14T08:54:40;9.95;;;8.55;;
77598;SDS011;66758;52.078;5.070;2023-05-14T08:57:06;14.10;;;8.77;;
77598;SDS011;66758;52.078;5.070;2023-05-14T08:59:33;13.23;;;8.93;;
77598;SDS011;66758;52.078;5.070;2023-05-14T09:02:00;15.20;;;7.43;;
77598;SDS011;66758;52.078;5.070;2023-05-14T09:04:26;11.95;;;7.97;;
77598;SDS011;66758;52.078;5.070;2023-05-14T09:06:52;13.03;;;8.03;;
77598;SDS011;66758;52.078;5.070;2023-05-14T09:09:18;14.05;;;8.35;;
77598;SDS011;66758;52.078;5.070;2023-05-14T09:11:46;13.18;;;8.88;;
77598;SDS011;66758;52.078;5.070;2023-05-14T09:14:11;15.23;;;8.33;;
77598;SDS011;66758;52.078;5.070;2023-05-14T09:16:37;14.33;;;7.83;;
77598;SDS011;66758;52.078;5.070;2023-05-14T09:19:04;11.23;;;7.03;;
77598;SDS011;66758;52.078;5.070;2023-05-14T09:21:29;13.73;;;7.55;;
77598;SDS011;66758;52.078;5.070;2023-05-14T09:23:56;13.60;;;7.70;;
77598;SDS011;66758;52.078;5.070;2023-05-14T09:26:25;15.27;;;8.38;;
77598;SDS011;66758;52.078;5.070;2023-05-14T09:28:54;12.93;;;7.80;;
77598;SDS011;66758;52.078;5.070;2023-05-14T09:31:24;13.75;;;8.07;;
77598;SDS011;66758;52.078;5.070;2023-05-14T09:33:50;14.33;;;7.60;;
77598;SDS011;66758;52.078;5.070;2023-05-14T09:36:16;14.07;;;8.83;;
77598;SDS011;66758;52.078;5.070;2023-05-14T09:38:41;13.07;;;7.88;;
77598;SDS011;66758;52.078;5.070;2023-05-14T09:41:06;10.57;;;6.97;;
77598;SDS011;66758;52.078;5.070;2023-05-14T09:43:32;11.40;;;7.00;;
77598;SDS011;66758;52.078;5.070;2023-05-14T09:45:58;11.50;;;7.63;;
77598;SDS011;66758;52.078;5.070;2023-05-14T09:48:24;15.70;;;7.40;;
77598;SDS011;66758;52.078;5.070;2023-05-14T09:50:49;10.47;;;7.13;;
77598;SDS011;66758;52.078;5.070;2023-05-14T09:53:16;9.77;;;6.90;;
77598;SDS011;66758;52.078;5.070;2023-05-14T09:55:41;12.63;;;5.93;;
77598;SDS011;66758;52.078;5.070;2023-05-14T09:58:07;13.47;;;6.40;;
77598;SDS011;66758;52.078;5.070;2023-05-14T10:00:33;12.37;;;6.63;;
77598;SDS011;66758;52.078;5.070;2023-05-14T10:02:58;9.75;;;5.95;;
77598;SDS011;66758;52.078;5.070;2023-05-14T10:05:25;11.50;;;6.70;;
77598;SDS011;66758;52.078;5.070;2023-05-14T10:07:52;13.60;;;6.68;;
77598;SDS011;66758;52.078;5.070;2023-05-14T10:10:18;10.45;;;6.13;;
77598;SDS011;66758;52.078;5.070;2023-05-14T10:12:45;10.67;;;6.30;;
77598;SDS011;66758;52.078;5.070;2023-05-14T10:15:15;11.45;;;6.22;;
77598;SDS011;66758;52.078;5.070;2023-05-14T10:17:43;12.93;;;6.00;;
77598;SDS011;66758;52.078;5.070;2023-05-14T10:20:11;10.65;;;5.88;;
77598;SDS011;66758;52.078;5.070;2023-05-14T10:22:38;10.70;;;6.20;;
77598;SDS011;66758;52.078;5.070;2023-05-14T10:25:03;8.10;;;5.00;;
77598;SDS011;66758;52.078;5.070;2023-05-14T10:27:29;11.18;;;6.97;;
77598;SDS011;66758;52.078;5.070;2023-05-14T10:29:55;10.77;;;5.87;;
77598;SDS011;66758;52.078;5.070;2023-05-14T10:32:21;13.97;;;6.00;;
77598;SDS011;66758;52.078;5.070;2023-05-14T10:34:49;10.70;;;6.40;;
77598;SDS011;66758;52.078;5.070;2023-05-14T10:37:18;11.73;;;6.32;;
77598;SDS011;66758;52.078;5.070;2023-05-14T10:42:11;11.32;;;5.30;;
77598;SDS011;66758;52.078;5.070;2023-05-14T10:44:38;9.77;;;5.60;;
77598;SDS011;66758;52.078;5.070;2023-05-14T10:47:05;11.60;;;6.20;;
77598;SDS011;66758;52.078;5.070;2023-05-14T10:49:31;10.32;;;5.85;;
77598;SDS011;66758;52.078;5.070;2023-05-14T10:51:57;14.10;;;5.90;;
77598;SDS011;66758;52.078;5.070;2023-05-14T10:54:23;15.80;;;8.23;;
77598;SDS011;66758;52.078;5.070;2023-05-14T10:56:48;10.30;;;6.50;;
77598;SDS011;66758;52.078;5.070;2023-05-14T10:59:15;12.80;;;6.70;;
77598;SDS011;66758;52.078;5.070;2023-05-14T11:01:41;12.15;;;5.75;;
77598;SDS011;66758;52.078;5.070;2023-05-14T11:04:06;14.40;;;6.35;;
77598;SDS011;66758;52.078;5.070;2023-05-14T11:06:33;9.13;;;5.82;;
77598;SDS011;66758;52.078;5.070;2023-05-14T11:09:05;8.70;;;5.40;;
77598;SDS011;66758;52.078;5.070;2023-05-14T11:11:30;11.52;;;5.70;;
77598;SDS011;66758;52.078;5.070;2023-05-14T11:13:56;9.83;;;6.00;;
77598;SDS011;66758;52.078;5.070;2023-05-14T11:16:21;10.07;;;5.50;;
77598;SDS011;66758;52.078;5.070;2023-05-14T11:18:51;9.13;;;5.90;;
77598;SDS011;66758;52.078;5.070;2023-05-14T11:21:17;13.88;;;6.30;;
77598;SDS011;66758;52.078;5.070;2023-05-14T11:23:45;9.47;;;5.93;;
77598;SDS011;66758;52.078;5.070;2023-05-14T11:26:10;8.50;;;5.55;;
77598;SDS011;66758;52.078;5.070;2023-05-14T11:28:36;9.63;;;5.70;;
77598;SDS011;66758;52.078;5.070;2023-05-14T11:31:02;9.27;;;5.88;;
77598;SDS011;66758;52.078;5.070;2023-05-14T11:33:29;10.23;;;6.17;;
77598;SDS011;66758;52.078;5.070;2023-05-14T11:35:55;13.20;;;5.57;;
77598;SDS011;66758;52.078;5.070;2023-05-14T11:38:21;11.32;;;6.00;;
77598;SDS011;66758;52.078;5.070;2023-05-14T11:40:53;12.20;;;5.80;;
77598;SDS011;66758;52.078;5.070;2023-05-14T11:43:18;11.45;;;6.25;;
77598;SDS011;66758;52.078;5.070;2023-05-14T11:45:48;7.53;;;5.10;;
77598;SDS011;66758;52.078;5.070;2023-05-14T11:48:13;9.47;;;5.33;;
77598;SDS011;66758;52.078;5.070;2023-05-14T11:50:39;9.68;;;5.40;;
77598;SDS011;66758;52.078;5.070;2023-05-14T11:53:04;9.23;;;5.70;;
77598;SDS011;66758;52.078;5.070;2023-05-14T11:55:32;8.10;;;5.28;;
77598;SDS011;66758;52.078;5.070;2023-05-14T11:57:57;8.88;;;4.80;;
77598;SDS011;66758;52.078;5.070;2023-05-14T12:00:23;8.63;;;5.93;;
77598;SDS011;66758;52.078;5.070;2023-05-14T12:02:48;10.23;;;5.37;;
77598;SDS011;66758;52.078;5.070;2023-05-14T12:05:14;13.85;;;5.35;;
77598;SDS011;66758;52.078;5.070;2023-05-14T12:07:39;6.83;;;5.33;;
77598;SDS011;66758;52.078;5.070;2023-05-14T12:10:10;10.27;;;6.10;;
77598;SDS011;66758;52.078;5.070;2023-05-14T12:12:36;8.17;;;4.63;;
77598;SDS011;66758;52.078;5.070;2023-05-14T12:15:01;10.95;;;5.13;;
77598;SDS011;66758;52.078;5.070;2023-05-14T12:17:26;6.67;;;4.67;;
77598;SDS011;66758;52.078;5.070;2023-05-14T12:19:52;8.30;;;4.93;;
77598;SDS011;66758;52.078;5.070;2023-05-14T12:22:19;7.70;;;5.05;;
77598;SDS011;66758;52.078;5.070;2023-05-14T12:24:54;10.43;;;5.53;;
77598;SDS011;66758;52.078;5.070;2023-05-14T12:27:27;6.03;;;5.13;;
77598;SDS011;66758;52.078;5.070;2023-05-14T12:29:59;10.02;;;4.95;;
77598;SDS011;66758;52.078;5.070;2023-05-14T12:32:24;8.30;;;4.78;;
77598;SDS011;66758;52.078;5.070;2023-05-14T12:34:50;9.13;;;4.70;;
77598;SDS011;66758;52.078;5.070;2023-05-14T12:37:15;6.37;;;5.03;;
77598;SDS011;66758;52.078;5.070;2023-05-14T12:39:42;7.82;;;4.90;;
77598;SDS011;66758;52.078;5.070;2023-05-14T12:42:07;8.17;;;4.60;;
77598;SDS011;66758;52.078;5.070;2023-05-14T12:44:32;10.87;;;5.20;;
77598;SDS011;66758;52.078;5.070;2023-05-14T12:46:58;8.33;;;5.10;;
77598;SDS011;66758;52.078;5.070;2023-05-14T12:49:23;7.63;;;4.93;;
77598;SDS011;66758;52.078;5.070;2023-05-14T12:51:48;7.63;;;4.82;;
77598;SDS011;66758;52.078;5.070;2023-05-14T12:54:14;8.83;;;4.70;;
77598;SDS011;66758;52.078;5.070;2023-05-14T12:56:40;9.73;;;4.93;;
77598;SDS011;66758;52.078;5.070;2023-05-14T12:59:05;8.55;;;4.97;;
77598;SDS011;66758;52.078;5.070;2023-05-14T13:01:30;6.60;;;4.87;;
77598;SDS011;66758;52.078;5.070;2023-05-14T13:03:55;7.13;;;4.90;;
77598;SDS011;66758;52.078;5.070;2023-05-14T13:06:22;6.68;;;5.00;;
77598;SDS011;66758;52.078;5.070;2023-05-14T13:08:47;6.90;;;4.40;;
77598;SDS011;66758;52.078;5.070;2023-05-14T13:11:12;10.77;;;6.80;;
77598;SDS011;66758;52.078;5.070;2023-05-14T13:13:38;6.33;;;4.20;;
77598;SDS011;66758;52.078;5.070;2023-05-14T13:16:03;8.93;;;4.57;;
77598;SDS011;66758;52.078;5.070;2023-05-14T13:18:28;6.30;;;4.13;;
77598;SDS011;66758;52.078;5.070;2023-05-14T13:20:54;6.68;;;4.63;;
77598;SDS011;66758;52.078;5.070;2023-05-14T13:23:19;5.70;;;4.33;;
77598;SDS011;66758;52.078;5.070;2023-05-14T13:25:45;6.07;;;4.40;;
77598;SDS011;66758;52.078;5.070;2023-05-14T13:28:10;8.00;;;4.90;;
77598;SDS011;66758;52.078;5.070;2023-05-14T13:30:36;6.63;;;4.60;;
77598;SDS011;66758;52.078;5.070;2023-05-14T13:33:01;7.77;;;4.60;;
77598;SDS011;66758;52.078;5.070;2023-05-14T13:35:26;9.77;;;5.40;;
77598;SDS011;66758;52.078;5.070;2023-05-14T13:37:52;8.87;;;5.17;;
77598;SDS011;66758;52.078;5.070;2023-05-14T13:40:17;10.60;;;5.27;;
77598;SDS011;66758;52.078;5.070;2023-05-14T13:42:42;7.70;;;5.27;;
77598;SDS011;66758;52.078;5.070;2023-05-14T13:45:08;11.07;;;6.67;;
77598;SDS011;66758;52.078;5.070;2023-05-14T13:47:33;21.67;;;19.80;;
77598;SDS011;66758;52.078;5.070;2023-05-14T13:49:58;61.63;;;56.00;;
77598;SDS011;66758;52.078;5.070;2023-05-14T13:52:24;28.83;;;26.17;;
77598;SDS011;66758;52.078;5.070;2023-05-14T13:54:51;14.18;;;12.68;;
77598;SDS011;66758;52.078;5.070;2023-05-14T13:57:18;40.28;;;36.50;;
77598;SDS011;66758;52.078;5.070;2023-05-14T13:59:45;67.43;;;61.45;;
77598;SDS011;66758;52.078;5.070;2023-05-14T14:02:10;74.32;;;67.05;;
77598;SDS011;66758;52.078;5.070;2023-05-14T14:04:37;99.20;;;90.17;;
77598;SDS011;66758;52.078;5.070;2023-05-14T14:07:02;198.77;;;179.52;;
77598;SDS011;66758;52.078;5.070;2023-05-14T14:09:27;171.50;;;153.40;;
77598;SDS011;66758;52.078;5.070;2023-05-14T14:11:53;102.20;;;93.53;;
77598;SDS011;66758;52.078;5.070;2023-05-14T14:14:18;38.93;;;35.57;;
77598;SDS011;66758;52.078;5.070;2023-05-14T14:16:45;36.47;;;33.30;;
77598;SDS011;66758;52.078;5.070;2023-05-14T14:19:10;44.92;;;40.92;;
77598;SDS011;66758;52.078;5.070;2023-05-14T14:21:35;9.23;;;6.77;;
77598;SDS011;66758;52.078;5.070;2023-05-14T14:24:03;11.32;;;6.85;;
77598;SDS011;66758;52.078;5.070;2023-05-14T14:26:29;15.07;;;12.80;;
77598;SDS011;66758;52.078;5.070;2023-05-14T14:28:54;9.63;;;8.50;;